createdAt,value
2023-05-19T00:00:58.981Z,7.83
2023-05-19T00:03:25.691Z,7.83
2023-05-19T00:05:53.789Z,7.75
2023-05-19T00:08:22.711Z,7.78
2023-05-19T00:10:49.455Z,7.74
2023-05-19T00:13:16.262Z,7.52
2023-05-19T00:15:43.161Z,7.35
2023-05-19T00:18:09.928Z,7.47
2023-05-19T00:20:38.040Z,7.37
2023-05-19T00:23:04.524Z,7.12
2023-05-19T00:25:31.139Z,7.11
2023-05-19T00:27:59.229Z,7.16
2023-05-19T00:30:26.144Z,7.24
2023-05-19T00:32:52.809Z,6.98
2023-05-19T00:35:20.338Z,6.85
2023-05-19T00:37:47.053Z,6.76
2023-05-19T00:40:13.674Z,6.87
2023-05-19T00:42:41.208Z,6.98
2023-05-19T00:45:08.469Z,7.06
2023-05-19T00:47:35.236Z,6.95
2023-05-19T00:50:01.848Z,6.89
2023-05-19T00:52:28.667Z,6.88
2023-05-19T00:54:55.939Z,6.90
2023-05-19T00:57:22.805Z,6.97
2023-05-19T00:59:49.392Z,7.07
2023-05-19T01:02:16.058Z,7.00
2023-05-19T01:04:44.762Z,6.68
2023-05-19T01:07:12.449Z,6.76
2023-05-19T01:09:40.612Z,6.95
2023-05-19T01:12:08.687Z,7.09
2023-05-19T01:14:36.364Z,6.86
2023-05-19T01:17:37.948Z,6.88
2023-05-19T01:20:27.235Z,6.94
2023-05-19T01:23:14.961Z,6.84
2023-05-19T01:25:56.967Z,6.84
2023-05-19T01:28:49.116Z,6.95
2023-05-19T01:31:18.655Z,6.79
2023-05-19T01:33:47.164Z,6.86
2023-05-19T01:36:15.404Z,6.95
2023-05-19T01:38:43.909Z,7.04
2023-05-19T01:41:11.735Z,7.24
2023-05-19T01:43:38.917Z,7.06
2023-05-19T01:46:06.191Z,6.95
2023-05-19T01:48:33.522Z,6.78
2023-05-19T01:51:00.200Z,6.76
2023-05-19T01:53:26.740Z,6.87
2023-05-19T01:55:56.347Z,6.89
2023-05-19T01:58:47.585Z,6.86
2023-05-19T02:01:45.768Z,6.81
2023-05-19T02:04:15.060Z,6.61
2023-05-19T02:07:03.565Z,6.56
2023-05-19T02:09:41.120Z,6.71
2023-05-19T02:12:16.701Z,6.66
2023-05-19T02:15:05.584Z,6.63
2023-05-19T02:17:36.406Z,6.57
2023-05-19T02:20:05.000Z,6.46
2023-05-19T02:22:31.780Z,6.45
2023-05-19T02:24:58.468Z,6.39
2023-05-19T02:27:25.015Z,6.31
2023-05-19T02:29:52.170Z,6.23
2023-05-19T02:32:19.221Z,6.22
2023-05-19T02:34:46.628Z,6.37
2023-05-19T02:37:14.608Z,6.35
2023-05-19T02:39:44.296Z,6.27
2023-05-19T02:42:12.001Z,6.34
2023-05-19T02:44:38.533Z,6.45
2023-05-19T02:47:05.028Z,6.48
2023-05-19T02:49:35.909Z,6.58
2023-05-19T02:52:06.086Z,6.59
2023-05-19T02:54:34.155Z,6.37
2023-05-19T02:57:02.387Z,6.44
2023-05-19T02:59:29.050Z,6.58
2023-05-19T03:02:01.673Z,6.71
2023-05-19T03:04:29.374Z,6.72
2023-05-19T03:06:57.307Z,6.69
2023-05-19T03:09:23.961Z,6.73
2023-05-19T03:11:50.712Z,6.81
2023-05-19T03:14:18.513Z,6.85
2023-05-19T03:16:45.154Z,6.92
2023-05-19T03:19:12.072Z,6.89
2023-05-19T03:21:38.527Z,6.79
2023-05-19T03:24:05.275Z,6.82
2023-05-19T03:26:32.990Z,6.81
2023-05-19T03:28:59.548Z,6.83
2023-05-19T03:31:26.727Z,6.90
2023-05-19T03:33:53.635Z,6.95
2023-05-19T03:36:22.120Z,6.93
2023-05-19T03:38:48.831Z,6.84
2023-05-19T03:41:15.817Z,6.90
2023-05-19T03:43:42.421Z,6.99
2023-05-19T03:46:09.914Z,7.10
2023-05-19T03:49:05.025Z,7.15
2023-05-19T03:51:37.110Z,7.14
2023-05-19T03:54:16.987Z,7.09
2023-05-19T03:56:43.483Z,7.15
2023-05-19T03:59:13.038Z,7.23
2023-05-19T04:01:39.604Z,7.35
2023-05-19T04:04:06.099Z,7.24
2023-05-19T04:06:33.830Z,7.28
2023-05-19T04:09:02.651Z,7.21
2023-05-19T04:11:29.224Z,7.28
2023-05-19T04:13:55.778Z,7.32
2023-05-19T04:16:22.412Z,7.20
2023-05-19T04:18:49.017Z,7.26
2023-05-19T04:21:15.521Z,7.11
2023-05-19T04:23:42.047Z,7.30
2023-05-19T04:26:08.504Z,7.50
2023-05-19T04:28:38.933Z,7.42
2023-05-19T04:31:11.105Z,7.22
2023-05-19T04:33:37.983Z,7.20
2023-05-19T04:36:10.562Z,7.31
2023-05-19T04:38:40.062Z,7.56
2023-05-19T04:41:12.144Z,7.58
2023-05-19T04:43:44.575Z,7.76
2023-05-19T04:46:13.945Z,7.74
2023-05-19T04:48:42.625Z,7.81
2023-05-19T04:51:09.105Z,7.84
2023-05-19T04:53:36.625Z,7.86
2023-05-19T04:56:05.877Z,8.01
2023-05-19T04:58:33.260Z,8.13
2023-05-19T05:00:59.959Z,8.28
2023-05-19T05:03:27.472Z,8.36
2023-05-19T05:05:54.120Z,8.37
2023-05-19T05:08:23.301Z,8.33
2023-05-19T05:10:51.472Z,8.35
2023-05-19T05:13:21.281Z,8.28
2023-05-19T05:15:48.268Z,8.52
2023-05-19T05:18:15.823Z,8.45
2023-05-19T05:20:43.160Z,8.64
2023-05-19T05:23:14.486Z,8.53
2023-05-19T05:25:44.184Z,8.61
2023-05-19T05:28:11.356Z,8.58
2023-05-19T05:30:37.964Z,8.75
2023-05-19T05:33:06.654Z,8.96
2023-05-19T05:35:36.711Z,8.98
2023-05-19T05:38:04.399Z,9.19
2023-05-19T05:40:31.155Z,9.06
2023-05-19T05:42:59.080Z,9.22
2023-05-19T05:45:28.603Z,9.24
2023-05-19T05:47:55.636Z,9.27
2023-05-19T05:50:23.241Z,9.14
2023-05-19T05:52:50.970Z,9.14
2023-05-19T05:55:18.567Z,9.23
2023-05-19T05:57:45.338Z,9.28
2023-05-19T06:00:15.815Z,9.29
2023-05-19T06:02:49.198Z,9.41
2023-05-19T06:05:17.774Z,9.52
2023-05-19T06:07:46.679Z,9.56
2023-05-19T06:10:18.643Z,9.71
2023-05-19T06:12:45.427Z,9.86
2023-05-19T06:15:12.094Z,9.84
2023-05-19T06:18:11.036Z,9.77
2023-05-19T06:20:39.267Z,9.86
2023-05-19T06:23:05.817Z,9.97
2023-05-19T06:25:32.675Z,10.12
2023-05-19T06:27:59.819Z,10.21
2023-05-19T06:30:27.351Z,10.38
2023-05-19T06:33:08.731Z,10.45
2023-05-19T06:35:35.619Z,10.54
2023-05-19T06:38:02.250Z,10.44
2023-05-19T06:40:29.439Z,10.62
2023-05-19T06:42:56.178Z,10.70
2023-05-19T06:45:32.926Z,10.78
2023-05-19T06:48:02.064Z,10.98
2023-05-19T06:50:28.898Z,11.09
2023-05-19T06:52:57.192Z,11.21
2023-05-19T06:55:24.369Z,11.28
2023-05-19T06:57:50.845Z,11.37
2023-05-19T07:00:21.185Z,11.47
2023-05-19T07:02:51.230Z,11.64
2023-05-19T07:05:18.287Z,11.66
2023-05-19T07:07:49.517Z,11.65
2023-05-19T07:10:21.849Z,11.66
2023-05-19T07:12:48.551Z,11.84
2023-05-19T07:15:16.980Z,12.05
2023-05-19T07:17:43.891Z,12.16
2023-05-19T07:20:10.820Z,12.23
2023-05-19T07:22:39.612Z,12.20
2023-05-19T07:25:09.908Z,12.43
2023-05-19T07:27:37.109Z,12.28
2023-05-19T07:30:04.288Z,12.42
2023-05-19T07:32:30.819Z,12.59
2023-05-19T07:34:57.428Z,12.59
2023-05-19T07:37:23.987Z,12.87
2023-05-19T07:39:50.539Z,12.96
2023-05-19T07:42:17.018Z,12.97
2023-05-19T07:44:43.533Z,12.88
2023-05-19T07:47:10.127Z,12.72
2023-05-19T07:49:36.689Z,12.88
2023-05-19T07:52:03.448Z,12.57
2023-05-19T07:54:29.982Z,12.51
2023-05-19T07:56:56.616Z,12.47
2023-05-19T07:59:23.135Z,12.63
2023-05-19T08:01:49.780Z,12.86
2023-05-19T08:04:16.447Z,12.81
2023-05-19T08:06:44.414Z,12.85
2023-05-19T08:09:11.099Z,13.16
2023-05-19T08:11:37.823Z,13.17
2023-05-19T08:14:04.354Z,12.94
2023-05-19T08:16:31.055Z,12.84
2023-05-19T08:18:57.681Z,12.80
2023-05-19T08:21:24.213Z,12.64
2023-05-19T08:23:51.141Z,12.62
2023-05-19T08:26:17.731Z,12.84
2023-05-19T08:28:44.294Z,13.15
2023-05-19T08:31:11.010Z,13.22
2023-05-19T08:33:37.606Z,13.42
2023-05-19T08:36:04.686Z,13.16
2023-05-19T08:38:31.118Z,12.96
2023-05-19T08:40:58.626Z,12.76
2023-05-19T08:43:25.659Z,12.92
2023-05-19T08:45:54.038Z,13.03
2023-05-19T08:48:22.186Z,13.21
2023-05-19T08:51:08.887Z,13.56
2023-05-19T08:53:39.670Z,13.47
2023-05-19T08:56:16.357Z,13.54
2023-05-19T08:58:44.613Z,13.75
2023-05-19T09:01:14.470Z,13.63
2023-05-19T09:03:42.670Z,13.61
2023-05-19T09:06:12.453Z,13.43
2023-05-19T09:08:39.758Z,13.36
2023-05-19T09:11:06.421Z,13.74
2023-05-19T09:13:32.930Z,13.52
2023-05-19T09:15:59.815Z,13.59
2023-05-19T09:18:26.832Z,13.62
2023-05-19T09:21:00.625Z,13.39
2023-05-19T09:23:29.622Z,13.72
2023-05-19T09:25:57.255Z,13.76
2023-05-19T09:28:27.974Z,13.63
2023-05-19T09:31:02.319Z,13.57
2023-05-19T09:33:29.626Z,13.78
2023-05-19T09:35:56.900Z,13.74
2023-05-19T09:38:27.526Z,13.44
2023-05-19T09:40:57.909Z,13.50
2023-05-19T09:43:24.857Z,13.86
2023-05-19T09:46:01.582Z,13.39
2023-05-19T09:48:28.315Z,13.47
2023-05-19T09:50:55.025Z,13.54
2023-05-19T09:53:22.166Z,13.49
2023-05-19T09:55:49.808Z,13.71
2023-05-19T09:58:18.568Z,13.55
2023-05-19T10:00:47.518Z,13.58
2023-05-19T10:03:16.446Z,13.79
2023-05-19T10:05:43.821Z,13.41
2023-05-19T10:08:12.342Z,13.74
2023-05-19T10:10:39.012Z,13.89
2023-05-19T10:13:06.204Z,13.78
2023-05-19T10:15:36.095Z,13.96
2023-05-19T10:18:08.284Z,13.79
2023-05-19T10:20:35.568Z,14.26
2023-05-19T10:23:03.198Z,14.45
2023-05-19T10:25:35.302Z,14.24
2023-05-19T10:28:07.742Z,14.41
2023-05-19T10:30:47.499Z,14.18
2023-05-19T10:33:17.518Z,14.25
2023-05-19T10:36:09.683Z,13.98
2023-05-19T10:38:58.773Z,14.20
2023-05-19T10:41:41.804Z,13.92
2023-05-19T10:44:26.653Z,13.95
2023-05-19T10:46:56.606Z,14.12
2023-05-19T10:49:23.913Z,14.44
2023-05-19T10:51:54.830Z,14.35
2023-05-19T10:54:46.768Z,14.73
2023-05-19T10:57:20.230Z,14.77
2023-05-19T10:59:47.178Z,14.81
2023-05-19T11:02:45.046Z,14.19
2023-05-19T11:05:14.694Z,14.28
2023-05-19T11:07:54.510Z,14.33
2023-05-19T11:10:25.133Z,14.25
2023-05-19T11:12:52.351Z,14.45
2023-05-19T11:15:23.955Z,14.50
2023-05-19T11:17:52.134Z,14.62
2023-05-19T11:20:23.509Z,14.55
2023-05-19T11:23:11.095Z,14.90
2023-05-19T11:25:52.180Z,15.07
2023-05-19T11:28:20.624Z,14.99
2023-05-19T11:30:51.953Z,15.01
2023-05-19T11:33:20.264Z,14.84
2023-05-19T11:35:49.246Z,14.83
2023-05-19T11:38:18.414Z,14.68
2023-05-19T11:40:45.107Z,14.31
2023-05-19T11:43:11.596Z,14.31
2023-05-19T11:45:38.398Z,14.07
2023-05-19T11:48:05.619Z,14.21
2023-05-19T11:50:32.611Z,13.94
2023-05-19T11:53:01.251Z,13.83
2023-05-19T11:55:28.551Z,14.02
2023-05-19T11:58:02.932Z,14.01
2023-05-19T12:00:37.107Z,14.24
2023-05-19T12:03:04.094Z,14.52
2023-05-19T12:05:34.488Z,14.69
2023-05-19T12:08:02.885Z,14.98
2023-05-19T12:10:31.408Z,14.78
2023-05-19T12:12:59.236Z,14.68
2023-05-19T12:15:25.976Z,14.78
2023-05-19T12:18:03.220Z,14.67
2023-05-19T12:20:35.398Z,14.66
2023-05-19T12:23:02.846Z,14.52
2023-05-19T12:25:31.081Z,14.36
2023-05-19T12:28:04.783Z,14.43
2023-05-19T12:30:32.896Z,14.32
2023-05-19T12:33:01.627Z,14.10
2023-05-19T12:35:35.923Z,14.00
2023-05-19T12:38:04.676Z,14.07
2023-05-19T12:40:31.531Z,14.02
2023-05-19T12:42:59.096Z,14.12
2023-05-19T12:45:27.971Z,14.25
2023-05-19T12:47:54.746Z,14.34
2023-05-19T12:50:21.323Z,14.25
2023-05-19T12:52:51.187Z,14.25
2023-05-19T12:55:20.471Z,14.01
2023-05-19T12:57:52.799Z,13.83
2023-05-19T13:00:21.513Z,13.79
2023-05-19T13:03:20.778Z,13.88
2023-05-19T13:05:49.597Z,14.03
2023-05-19T13:08:21.600Z,14.07
2023-05-19T13:10:49.203Z,14.09
2023-05-19T13:13:16.166Z,14.11
2023-05-19T13:15:44.805Z,13.80
2023-05-19T13:18:12.653Z,13.96
2023-05-19T13:20:40.636Z,14.15
2023-05-19T13:23:07.567Z,14.20
2023-05-19T13:25:34.469Z,13.95
2023-05-19T13:28:04.892Z,14.22
2023-05-19T13:30:33.042Z,14.29
2023-05-19T13:32:59.854Z,13.86
2023-05-19T13:35:26.650Z,13.81
2023-05-19T13:37:53.586Z,14.05
2023-05-19T13:40:20.256Z,13.86
2023-05-19T13:42:46.964Z,14.09
2023-05-19T13:45:13.927Z,14.28
2023-05-19T13:47:40.592Z,14.41
2023-05-19T13:50:07.496Z,14.52
2023-05-19T13:52:34.082Z,14.55
2023-05-19T13:55:00.567Z,13.96
2023-05-19T13:57:27.092Z,14.08
2023-05-19T14:00:01.794Z,13.99
2023-05-19T14:02:39.279Z,14.14
2023-05-19T14:05:06.541Z,13.99
2023-05-19T14:07:34.780Z,14.02
2023-05-19T14:10:02.586Z,14.00
2023-05-19T14:12:38.075Z,13.85
2023-05-19T14:15:14.227Z,13.80
2023-05-19T14:17:40.780Z,13.78
2023-05-19T14:20:08.383Z,13.81
2023-05-19T14:22:34.859Z,13.77
2023-05-19T14:25:02.187Z,13.99
2023-05-19T14:27:28.682Z,14.16
2023-05-19T14:29:55.245Z,14.20
2023-05-19T14:32:22.361Z,14.30
2023-05-19T14:34:52.694Z,14.49
2023-05-19T14:37:20.350Z,14.58
2023-05-19T14:39:46.966Z,14.73
2023-05-19T14:42:13.524Z,14.66
2023-05-19T14:44:39.982Z,14.61
2023-05-19T14:47:07.381Z,14.57
2023-05-19T14:49:34.068Z,14.79
2023-05-19T14:52:00.678Z,14.82
2023-05-19T14:54:27.156Z,14.59
2023-05-19T14:56:53.665Z,14.77
2023-05-19T14:59:21.555Z,14.70
2023-05-19T15:01:48.285Z,14.62
2023-05-19T15:04:14.973Z,14.26
2023-05-19T15:06:41.706Z,14.37
2023-05-19T15:09:08.349Z,14.14
2023-05-19T15:11:34.914Z,14.21
2023-05-19T15:14:01.397Z,14.42
2023-05-19T15:16:27.994Z,14.56
2023-05-19T15:18:54.819Z,14.73
2023-05-19T15:21:21.429Z,14.85
2023-05-19T15:23:48.012Z,14.48
2023-05-19T15:26:14.654Z,14.30
2023-05-19T15:28:41.353Z,14.31
2023-05-19T15:31:08.028Z,14.32
2023-05-19T15:33:34.687Z,14.44
2023-05-19T15:36:01.196Z,14.57
2023-05-19T15:38:29.223Z,14.38
2023-05-19T15:40:56.547Z,14.03
2023-05-19T15:43:23.261Z,14.00
2023-05-19T15:45:52.129Z,14.06
2023-05-19T15:48:19.079Z,13.96
2023-05-19T15:50:45.907Z,14.08
2023-05-19T15:53:12.447Z,14.21
2023-05-19T15:55:39.120Z,14.31
2023-05-19T15:58:05.657Z,14.30
2023-05-19T16:00:32.498Z,14.50
2023-05-19T16:02:59.256Z,14.59
2023-05-19T16:05:25.830Z,14.66
2023-05-19T16:07:52.268Z,14.96
2023-05-19T16:10:18.899Z,15.14
2023-05-19T16:12:45.431Z,15.07
2023-05-19T16:15:11.914Z,15.27
2023-05-19T16:17:38.471Z,15.25
2023-05-19T16:20:06.102Z,15.46
2023-05-19T16:22:32.643Z,15.61
2023-05-19T16:24:59.194Z,15.37
2023-05-19T16:27:25.819Z,15.53
2023-05-19T16:29:52.321Z,15.78
2023-05-19T16:32:19.061Z,15.82
2023-05-19T16:34:45.522Z,15.84
2023-05-19T16:37:12.112Z,15.63
2023-05-19T16:39:40.143Z,15.58
2023-05-19T16:42:06.865Z,15.70
2023-05-19T16:44:33.371Z,15.83
2023-05-19T16:46:59.834Z,15.93
2023-05-19T16:49:26.320Z,15.91
2023-05-19T16:51:54.066Z,15.64
2023-05-19T16:54:21.230Z,15.11
2023-05-19T16:56:47.819Z,15.26
2023-05-19T16:59:14.393Z,15.37
2023-05-19T17:01:40.958Z,15.18
2023-05-19T17:04:07.512Z,14.95
2023-05-19T17:06:34.152Z,15.00
2023-05-19T17:09:00.674Z,15.15
2023-05-19T17:11:27.492Z,15.26
2023-05-19T17:13:53.994Z,15.02
2023-05-19T17:16:20.512Z,14.86
2023-05-19T17:18:47.960Z,14.77
2023-05-19T17:21:14.658Z,14.85
2023-05-19T17:23:41.540Z,14.91
2023-05-19T17:26:08.779Z,15.06
2023-05-19T17:28:35.619Z,15.12
2023-05-19T17:31:09.567Z,15.13
2023-05-19T17:33:36.213Z,15.08
2023-05-19T17:36:04.155Z,15.12
2023-05-19T17:38:32.234Z,15.11
2023-05-19T17:40:59.401Z,15.02
2023-05-19T17:43:26.640Z,14.79
2023-05-19T17:45:53.609Z,14.79
2023-05-19T17:48:20.310Z,14.77
2023-05-19T17:50:48.064Z,14.73
2023-05-19T17:53:17.850Z,14.72
2023-05-19T17:55:52.423Z,14.64
2023-05-19T17:58:19.964Z,14.43
2023-05-19T18:00:46.683Z,14.30
2023-05-19T18:03:13.598Z,14.22
2023-05-19T18:05:43.103Z,13.97
2023-05-19T18:08:10.078Z,13.85
2023-05-19T18:10:38.480Z,13.70
2023-05-19T18:13:06.302Z,13.60
2023-05-19T18:15:33.312Z,13.32
2023-05-19T18:18:00.989Z,13.16
2023-05-19T18:20:27.533Z,13.03
2023-05-19T18:22:54.095Z,13.03
2023-05-19T18:25:21.728Z,12.95
2023-05-19T18:27:48.251Z,12.55
2023-05-19T18:30:14.759Z,12.52
2023-05-19T18:32:41.645Z,12.42
2023-05-19T18:35:08.993Z,12.26
2023-05-19T18:37:35.723Z,12.00
2023-05-19T18:40:02.302Z,11.86
2023-05-19T18:42:28.955Z,11.71
2023-05-19T18:44:55.454Z,11.32
2023-05-19T18:47:22.989Z,11.12
2023-05-19T18:49:49.905Z,11.01
2023-05-19T18:52:16.398Z,10.85
2023-05-19T18:54:44.049Z,10.46
2023-05-19T18:57:10.828Z,10.51
2023-05-19T18:59:37.332Z,10.56
2023-05-19T19:02:03.986Z,10.41
2023-05-19T19:04:30.740Z,10.28
2023-05-19T19:06:57.319Z,10.33
2023-05-19T19:09:23.793Z,10.36
2023-05-19T19:11:50.440Z,9.89
2023-05-19T19:14:16.995Z,9.91
2023-05-19T19:16:43.596Z,9.95
2023-05-19T19:19:10.227Z,9.81
2023-05-19T19:21:36.786Z,9.63
2023-05-19T19:24:03.515Z,9.52
2023-05-19T19:26:29.965Z,9.49
2023-05-19T19:28:56.734Z,9.53
2023-05-19T19:31:25.714Z,9.47
2023-05-19T19:33:52.229Z,9.70
2023-05-19T19:36:18.779Z,9.86
2023-05-19T19:38:45.338Z,9.76
2023-05-19T19:41:11.931Z,9.52
2023-05-19T19:43:38.448Z,9.71
2023-05-19T19:46:06.949Z,9.91
2023-05-19T19:48:33.528Z,9.89
2023-05-19T19:50:59.979Z,9.96
2023-05-19T19:53:26.467Z,9.66
2023-05-19T19:55:59.616Z,9.48
2023-05-19T19:58:27.129Z,9.75
2023-05-19T20:00:59.646Z,9.93
2023-05-19T20:03:26.860Z,9.89
2023-05-19T20:05:56.956Z,9.84
2023-05-19T20:08:24.846Z,9.81
2023-05-19T20:10:51.628Z,9.86
2023-05-19T20:13:18.959Z,9.84
2023-05-19T20:15:46.614Z,9.78
2023-05-19T20:18:13.195Z,9.70
2023-05-19T20:20:40.212Z,9.43
2023-05-19T20:23:07.678Z,9.45
2023-05-19T20:25:34.743Z,9.53
2023-05-19T20:28:02.024Z,9.53
2023-05-19T20:30:28.640Z,9.59
2023-05-19T20:32:55.152Z,9.72
2023-05-19T20:35:22.322Z,9.81
2023-05-19T20:37:49.317Z,9.76
2023-05-19T20:40:15.846Z,9.78
2023-05-19T20:42:42.568Z,9.77
2023-05-19T20:45:09.255Z,9.74
2023-05-19T20:47:36.039Z,9.92
2023-05-19T20:50:02.601Z,10.00
2023-05-19T20:52:29.176Z,10.04
2023-05-19T20:54:55.668Z,10.00
2023-05-19T20:57:22.238Z,9.99
2023-05-19T20:59:48.706Z,10.07
2023-05-19T21:02:15.237Z,10.16
2023-05-19T21:04:41.725Z,10.24
2023-05-19T21:07:08.296Z,10.43
2023-05-19T21:09:34.794Z,10.55
2023-05-19T21:12:01.989Z,10.60
2023-05-19T21:14:28.542Z,10.51
2023-05-19T21:16:55.873Z,10.61
2023-05-19T21:19:23.104Z,10.70
2023-05-19T21:21:49.684Z,10.80
2023-05-19T21:24:16.539Z,10.80
2023-05-19T21:26:43.356Z,10.77
2023-05-19T21:29:10.629Z,10.79
2023-05-19T21:31:37.366Z,10.51
2023-05-19T21:34:04.808Z,10.74
2023-05-19T21:36:31.764Z,10.68
2023-05-19T21:38:58.297Z,10.58
2023-05-19T21:41:25.018Z,10.50
2023-05-19T21:43:51.558Z,10.53
2023-05-19T21:46:18.174Z,10.47
2023-05-19T21:48:44.690Z,10.38
2023-05-19T21:51:11.143Z,10.46
2023-05-19T21:53:37.603Z,10.43
2023-05-19T21:56:04.455Z,10.44
2023-05-19T21:58:30.974Z,10.37
2023-05-19T22:00:57.523Z,10.46
2023-05-19T22:03:24.201Z,10.33
2023-05-19T22:05:52.359Z,10.21
2023-05-19T22:08:20.258Z,10.19
2023-05-19T22:10:53.425Z,10.24
2023-05-19T22:13:20.259Z,10.24
2023-05-19T22:15:46.996Z,10.27
2023-05-19T22:18:13.613Z,10.24
2023-05-19T22:20:40.299Z,9.98
2023-05-19T22:23:06.850Z,9.99
2023-05-19T22:25:33.451Z,10.01
2023-05-19T22:28:01.163Z,10.08
2023-05-19T22:30:27.975Z,10.10
2023-05-19T22:32:54.515Z,10.15
2023-05-19T22:35:21.302Z,10.22
2023-05-19T22:37:47.799Z,9.62
2023-05-19T22:40:14.341Z,9.68
2023-05-19T22:42:40.941Z,9.87
2023-05-19T22:45:07.991Z,9.80
2023-05-19T22:47:34.567Z,9.44
2023-05-19T22:50:01.106Z,9.32
2023-05-19T22:52:27.622Z,9.23
2023-05-19T22:54:54.136Z,9.30
2023-05-19T22:57:20.706Z,9.49
2023-05-19T22:59:47.289Z,9.44
2023-05-19T23:02:13.860Z,9.33
2023-05-19T23:04:40.598Z,9.55
2023-05-19T23:07:07.132Z,9.35
2023-05-19T23:09:33.795Z,9.07
2023-05-19T23:12:00.291Z,8.96
2023-05-19T23:14:26.863Z,8.92
2023-05-19T23:16:53.453Z,8.96
2023-05-19T23:19:23.080Z,9.04
2023-05-19T23:21:49.655Z,8.82
2023-05-19T23:24:16.168Z,8.72
2023-05-19T23:26:45.879Z,8.87
2023-05-19T23:29:13.318Z,8.94
2023-05-19T23:31:41.021Z,8.88
2023-05-19T23:34:07.960Z,8.87
2023-05-19T23:36:34.427Z,8.75
2023-05-19T23:39:01.170Z,8.81
2023-05-19T23:41:27.768Z,8.94
2023-05-19T23:43:54.324Z,8.82
2023-05-19T23:46:20.995Z,8.79
2023-05-19T23:48:47.570Z,8.74
2023-05-19T23:51:14.258Z,8.81
2023-05-19T23:53:40.830Z,8.87
2023-05-19T23:56:07.660Z,8.76
2023-05-19T23:58:34.177Z,8.73
